sensor_id;sensor_type;location;lat;lon;timestamp;P1;durP1;ratioP1;P2;durP2;ratioP2
38182;SDS011;23991;52.430;10.586;2022-10-26T00:00:28;8.88;;;4.07;;
38182;SDS011;23991;52.430;10.586;2022-10-26T00:02:54;8.07;;;3.88;;
38182;SDS011;23991;52.430;10.586;2022-10-26T00:05:21;8.48;;;4.05;;
38182;SDS011;23991;52.430;10.586;2022-10-26T00:07:47;6.28;;;3.95;;
38182;SDS011;23991;52.430;10.586;2022-10-26T00:10:13;8.10;;;4.32;;
38182;SDS011;23991;52.430;10.586;2022-10-26T00:12:39;5.53;;;3.72;;
38182;SDS011;23991;52.430;10.586;2022-10-26T00:15:05;6.20;;;3.75;;
38182;SDS011;23991;52.430;10.586;2022-10-26T00:17:32;7.60;;;3.58;;
38182;SDS011;23991;52.430;10.586;2022-10-26T00:19:57;7.57;;;3.65;;
38182;SDS011;23991;52.430;10.586;2022-10-26T00:22:24;6.88;;;3.63;;
38182;SDS011;23991;52.430;10.586;2022-10-26T00:24:50;9.50;;;3.72;;
38182;SDS011;23991;52.430;10.586;2022-10-26T00:27:16;5.70;;;3.22;;
38182;SDS011;23991;52.430;10.586;2022-10-26T00:29:41;5.30;;;2.75;;
38182;SDS011;23991;52.430;10.586;2022-10-26T00:32:07;6.28;;;2.60;;
38182;SDS011;23991;52.430;10.586;2022-10-26T00:34:33;7.28;;;3.17;;
38182;SDS011;23991;52.430;10.586;2022-10-26T00:36:58;10.38;;;3.42;;
38182;SDS011;23991;52.430;10.586;2022-10-26T00:39:24;4.72;;;3.08;;
38182;SDS011;23991;52.430;10.586;2022-10-26T00:41:49;5.82;;;3.13;;
38182;SDS011;23991;52.430;10.586;2022-10-26T00:47:13;4.05;;;2.55;;
38182;SDS011;23991;52.430;10.586;2022-10-26T00:49:52;4.07;;;2.92;;
38182;SDS011;23991;52.430;10.586;2022-10-26T00:52:19;4.70;;;3.10;;
38182;SDS011;23991;52.430;10.586;2022-10-26T00:54:46;10.27;;;3.15;;
38182;SDS011;23991;52.430;10.586;2022-10-26T00:57:12;5.22;;;3.42;;
38182;SDS011;23991;52.430;10.586;2022-10-26T00:59:40;6.10;;;2.90;;
38182;SDS011;23991;52.430;10.586;2022-10-26T01:02:07;6.75;;;3.45;;
38182;SDS011;23991;52.430;10.586;2022-10-26T01:04:33;4.65;;;3.40;;
38182;SDS011;23991;52.430;10.586;2022-10-26T01:06:59;6.35;;;3.85;;
38182;SDS011;23991;52.430;10.586;2022-10-26T01:09:27;5.72;;;3.58;;
38182;SDS011;23991;52.430;10.586;2022-10-26T01:11:53;4.43;;;2.90;;
38182;SDS011;23991;52.430;10.586;2022-10-26T01:14:19;5.22;;;2.80;;
38182;SDS011;23991;52.430;10.586;2022-10-26T01:33:27;7.72;;;3.03;;
38182;SDS011;23991;52.430;10.586;2022-10-26T01:39:00;6.45;;;2.47;;
38182;SDS011;23991;52.430;10.586;2022-10-26T01:41:37;4.68;;;2.20;;
38182;SDS011;23991;52.430;10.586;2022-10-26T01:44:12;4.65;;;2.20;;
38182;SDS011;23991;52.430;10.586;2022-10-26T01:46:50;3.85;;;2.63;;
38182;SDS011;23991;52.430;10.586;2022-10-26T01:49:19;6.28;;;2.38;;
38182;SDS011;23991;52.430;10.586;2022-10-26T01:51:48;5.03;;;2.28;;
38182;SDS011;23991;52.430;10.586;2022-10-26T01:54:14;5.90;;;2.58;;
38182;SDS011;23991;52.430;10.586;2022-10-26T01:56:41;5.50;;;2.38;;
38182;SDS011;23991;52.430;10.586;2022-10-26T02:05:09;3.65;;;2.30;;
38182;SDS011;23991;52.430;10.586;2022-10-26T02:11:29;6.10;;;2.28;;
38182;SDS011;23991;52.430;10.586;2022-10-26T02:13:28;5.00;;;2.85;;
38182;SDS011;23991;52.430;10.586;2022-10-26T02:22:15;6.18;;;2.30;;
38182;SDS011;23991;52.430;10.586;2022-10-26T02:24:47;7.22;;;2.35;;
38182;SDS011;23991;52.430;10.586;2022-10-26T02:27:17;4.85;;;2.35;;
38182;SDS011;23991;52.430;10.586;2022-10-26T02:30:09;12.25;;;2.92;;
38182;SDS011;23991;52.430;10.586;2022-10-26T02:32:37;4.63;;;2.55;;
38182;SDS011;23991;52.430;10.586;2022-10-26T02:35:07;20.38;;;3.08;;
38182;SDS011;23991;52.430;10.586;2022-10-26T02:37:36;12.43;;;2.20;;
38182;SDS011;23991;52.430;10.586;2022-10-26T02:40:05;8.82;;;2.67;;
38182;SDS011;23991;52.430;10.586;2022-10-26T02:42:39;5.85;;;2.38;;
38182;SDS011;23991;52.430;10.586;2022-10-26T02:45:10;3.92;;;1.98;;
38182;SDS011;23991;52.430;10.586;2022-10-26T02:47:39;7.68;;;2.50;;
38182;SDS011;23991;52.430;10.586;2022-10-26T02:50:07;4.28;;;2.65;;
38182;SDS011;23991;52.430;10.586;2022-10-26T02:52:38;7.18;;;2.40;;
38182;SDS011;23991;52.430;10.586;2022-10-26T02:55:14;5.03;;;2.60;;
38182;SDS011;23991;52.430;10.586;2022-10-26T02:57:42;6.70;;;2.95;;
38182;SDS011;23991;52.430;10.586;2022-10-26T03:00:13;4.80;;;2.63;;
38182;SDS011;23991;52.430;10.586;2022-10-26T03:02:41;6.40;;;3.20;;
38182;SDS011;23991;52.430;10.586;2022-10-26T03:05:12;9.85;;;2.88;;
38182;SDS011;23991;52.430;10.586;2022-10-26T03:07:40;7.40;;;2.90;;
38182;SDS011;23991;52.430;10.586;2022-10-26T03:10:06;4.43;;;3.10;;
38182;SDS011;23991;52.430;10.586;2022-10-26T03:12:32;6.32;;;2.78;;
38182;SDS011;23991;52.430;10.586;2022-10-26T03:14:57;8.80;;;3.58;;
38182;SDS011;23991;52.430;10.586;2022-10-26T03:17:23;4.15;;;2.63;;
38182;SDS011;23991;52.430;10.586;2022-10-26T03:19:49;6.07;;;3.17;;
38182;SDS011;23991;52.430;10.586;2022-10-26T03:22:14;5.57;;;2.83;;
38182;SDS011;23991;52.430;10.586;2022-10-26T03:24:40;5.30;;;2.80;;
38182;SDS011;23991;52.430;10.586;2022-10-26T03:27:05;12.30;;;3.30;;
38182;SDS011;23991;52.430;10.586;2022-10-26T03:29:31;7.25;;;2.97;;
38182;SDS011;23991;52.430;10.586;2022-10-26T03:31:57;7.60;;;2.72;;
38182;SDS011;23991;52.430;10.586;2022-10-26T03:34:22;5.22;;;3.08;;
38182;SDS011;23991;52.430;10.586;2022-10-26T03:36:48;5.45;;;3.47;;
38182;SDS011;23991;52.430;10.586;2022-10-26T03:39:15;7.82;;;3.95;;
38182;SDS011;23991;52.430;10.586;2022-10-26T03:41:40;6.25;;;3.63;;
38182;SDS011;23991;52.430;10.586;2022-10-26T03:44:14;8.05;;;4.13;;
38182;SDS011;23991;52.430;10.586;2022-10-26T03:46:39;6.95;;;3.80;;
38182;SDS011;23991;52.430;10.586;2022-10-26T03:49:05;9.68;;;4.03;;
38182;SDS011;23991;52.430;10.586;2022-10-26T03:51:31;5.55;;;3.90;;
38182;SDS011;23991;52.430;10.586;2022-10-26T03:53:56;8.07;;;3.78;;
38182;SDS011;23991;52.430;10.586;2022-10-26T03:56:22;9.65;;;4.22;;
38182;SDS011;23991;52.430;10.586;2022-10-26T03:58:48;6.85;;;3.80;;
38182;SDS011;23991;52.430;10.586;2022-10-26T04:01:13;5.38;;;3.50;;
38182;SDS011;23991;52.430;10.586;2022-10-26T04:03:39;5.90;;;4.13;;
38182;SDS011;23991;52.430;10.586;2022-10-26T04:06:05;6.70;;;4.43;;
38182;SDS011;23991;52.430;10.586;2022-10-26T04:08:31;10.00;;;4.03;;
38182;SDS011;23991;52.430;10.586;2022-10-26T04:10:59;8.25;;;4.22;;
38182;SDS011;23991;52.430;10.586;2022-10-26T04:13:25;7.43;;;4.07;;
38182;SDS011;23991;52.430;10.586;2022-10-26T04:15:51;6.35;;;4.32;;
38182;SDS011;23991;52.430;10.586;2022-10-26T04:18:16;8.48;;;4.20;;
38182;SDS011;23991;52.430;10.586;2022-10-26T04:20:42;7.93;;;3.85;;
38182;SDS011;23991;52.430;10.586;2022-10-26T04:23:13;8.30;;;3.65;;
38182;SDS011;23991;52.430;10.586;2022-10-26T04:25:40;8.35;;;3.92;;
38182;SDS011;23991;52.430;10.586;2022-10-26T04:28:07;6.93;;;3.40;;
38182;SDS011;23991;52.430;10.586;2022-10-26T04:30:34;10.07;;;3.55;;
38182;SDS011;23991;52.430;10.586;2022-10-26T04:33:00;4.82;;;3.50;;
38182;SDS011;23991;52.430;10.586;2022-10-26T04:35:26;5.93;;;3.40;;
38182;SDS011;23991;52.430;10.586;2022-10-26T04:37:58;9.80;;;4.45;;
38182;SDS011;23991;52.430;10.586;2022-10-26T04:40:25;6.68;;;3.97;;
38182;SDS011;23991;52.430;10.586;2022-10-26T04:42:52;6.68;;;3.38;;
38182;SDS011;23991;52.430;10.586;2022-10-26T04:45:18;11.38;;;3.60;;
38182;SDS011;23991;52.430;10.586;2022-10-26T04:47:43;7.05;;;3.50;;
38182;SDS011;23991;52.430;10.586;2022-10-26T04:50:09;6.40;;;4.00;;
38182;SDS011;23991;52.430;10.586;2022-10-26T04:52:36;6.50;;;3.75;;
38182;SDS011;23991;52.430;10.586;2022-10-26T04:55:03;6.80;;;3.67;;
38182;SDS011;23991;52.430;10.586;2022-10-26T04:57:30;6.82;;;4.03;;
38182;SDS011;23991;52.430;10.586;2022-10-26T04:59:59;6.97;;;4.03;;
38182;SDS011;23991;52.430;10.586;2022-10-26T05:02:26;7.78;;;4.38;;
38182;SDS011;23991;52.430;10.586;2022-10-26T05:04:53;6.57;;;3.88;;
38182;SDS011;23991;52.430;10.586;2022-10-26T05:07:18;10.68;;;3.70;;
38182;SDS011;23991;52.430;10.586;2022-10-26T05:09:44;6.13;;;3.58;;
38182;SDS011;23991;52.430;10.586;2022-10-26T05:12:10;6.50;;;3.35;;
38182;SDS011;23991;52.430;10.586;2022-10-26T05:14:36;6.93;;;3.95;;
38182;SDS011;23991;52.430;10.586;2022-10-26T05:17:01;7.72;;;3.83;;
38182;SDS011;23991;52.430;10.586;2022-10-26T05:19:27;8.27;;;3.50;;
38182;SDS011;23991;52.430;10.586;2022-10-26T05:21:52;7.97;;;3.90;;
38182;SDS011;23991;52.430;10.586;2022-10-26T05:24:18;5.75;;;3.65;;
38182;SDS011;23991;52.430;10.586;2022-10-26T05:26:44;7.95;;;3.90;;
38182;SDS011;23991;52.430;10.586;2022-10-26T05:29:09;7.63;;;3.80;;
38182;SDS011;23991;52.430;10.586;2022-10-26T05:31:35;7.97;;;3.58;;
38182;SDS011;23991;52.430;10.586;2022-10-26T05:34:01;6.20;;;3.80;;
38182;SDS011;23991;52.430;10.586;2022-10-26T05:36:27;7.45;;;3.35;;
38182;SDS011;23991;52.430;10.586;2022-10-26T05:38:52;6.63;;;3.50;;
38182;SDS011;23991;52.430;10.586;2022-10-26T05:41:21;8.02;;;3.85;;
38182;SDS011;23991;52.430;10.586;2022-10-26T05:43:46;5.90;;;3.65;;
38182;SDS011;23991;52.430;10.586;2022-10-26T05:46:12;5.28;;;3.70;;
38182;SDS011;23991;52.430;10.586;2022-10-26T05:48:38;4.82;;;3.05;;
38182;SDS011;23991;52.430;10.586;2022-10-26T05:51:03;8.55;;;3.80;;
38182;SDS011;23991;52.430;10.586;2022-10-26T05:53:29;7.05;;;3.25;;
38182;SDS011;23991;52.430;10.586;2022-10-26T05:55:55;4.97;;;3.05;;
38182;SDS011;23991;52.430;10.586;2022-10-26T05:58:21;4.75;;;3.20;;
38182;SDS011;23991;52.430;10.586;2022-10-26T06:03:51;9.20;;;3.47;;
38182;SDS011;23991;52.430;10.586;2022-10-26T06:06:44;6.32;;;3.28;;
38182;SDS011;23991;52.430;10.586;2022-10-26T06:09:12;10.23;;;3.40;;
38182;SDS011;23991;52.430;10.586;2022-10-26T06:11:38;7.47;;;3.00;;
38182;SDS011;23991;52.430;10.586;2022-10-26T06:14:05;7.60;;;3.05;;
38182;SDS011;23991;52.430;10.586;2022-10-26T06:30:22;4.72;;;3.13;;
38182;SDS011;23991;52.430;10.586;2022-10-26T06:32:47;4.53;;;3.00;;
38182;SDS011;23991;52.430;10.586;2022-10-26T06:35:32;7.53;;;3.10;;
38182;SDS011;23991;52.430;10.586;2022-10-26T06:38:06;5.93;;;2.97;;
38182;SDS011;23991;52.430;10.586;2022-10-26T06:40:35;4.85;;;2.67;;
38182;SDS011;23991;52.430;10.586;2022-10-26T06:43:03;5.72;;;2.80;;
38182;SDS011;23991;52.430;10.586;2022-10-26T06:45:40;4.22;;;2.97;;
38182;SDS011;23991;52.430;10.586;2022-10-26T06:48:18;6.80;;;2.80;;
38182;SDS011;23991;52.430;10.586;2022-10-26T06:50:49;4.80;;;3.10;;
38182;SDS011;23991;52.430;10.586;2022-10-26T06:53:26;8.65;;;3.25;;
38182;SDS011;23991;52.430;10.586;2022-10-26T06:55:59;4.13;;;2.72;;
38182;SDS011;23991;52.430;10.586;2022-10-26T06:58:29;8.25;;;3.30;;
38182;SDS011;23991;52.430;10.586;2022-10-26T07:01:00;8.35;;;3.00;;
38182;SDS011;23991;52.430;10.586;2022-10-26T07:03:26;5.38;;;3.35;;
38182;SDS011;23991;52.430;10.586;2022-10-26T07:05:52;6.85;;;3.00;;
38182;SDS011;23991;52.430;10.586;2022-10-26T07:08:17;10.82;;;3.88;;
38182;SDS011;23991;52.430;10.586;2022-10-26T07:10:43;6.43;;;3.10;;
38182;SDS011;23991;52.430;10.586;2022-10-26T07:13:10;7.93;;;2.70;;
38182;SDS011;23991;52.430;10.586;2022-10-26T07:15:37;4.88;;;2.92;;
38182;SDS011;23991;52.430;10.586;2022-10-26T07:18:04;9.70;;;3.28;;
38182;SDS011;23991;52.430;10.586;2022-10-26T07:20:34;4.63;;;3.38;;
38182;SDS011;23991;52.430;10.586;2022-10-26T07:23:01;8.63;;;3.38;;
38182;SDS011;23991;52.430;10.586;2022-10-26T07:25:27;5.85;;;3.22;;
38182;SDS011;23991;52.430;10.586;2022-10-26T07:28:01;8.73;;;3.88;;
38182;SDS011;23991;52.430;10.586;2022-10-26T07:30:27;9.25;;;4.57;;
38182;SDS011;23991;52.430;10.586;2022-10-26T07:33:04;5.32;;;3.78;;
38182;SDS011;23991;52.430;10.586;2022-10-26T07:35:32;9.30;;;3.83;;
38182;SDS011;23991;52.430;10.586;2022-10-26T07:37:58;5.78;;;3.50;;
38182;SDS011;23991;52.430;10.586;2022-10-26T07:40:24;8.50;;;3.10;;
38182;SDS011;23991;52.430;10.586;2022-10-26T07:42:49;6.45;;;4.20;;
38182;SDS011;23991;52.430;10.586;2022-10-26T07:45:16;6.63;;;4.93;;
38182;SDS011;23991;52.430;10.586;2022-10-26T07:47:41;12.98;;;8.88;;
38182;SDS011;23991;52.430;10.586;2022-10-26T07:50:07;18.92;;;10.00;;
38182;SDS011;23991;52.430;10.586;2022-10-26T07:52:33;11.68;;;5.88;;
38182;SDS011;23991;52.430;10.586;2022-10-26T07:55:00;7.95;;;4.15;;
38182;SDS011;23991;52.430;10.586;2022-10-26T07:57:26;8.75;;;3.92;;
38182;SDS011;23991;52.430;10.586;2022-10-26T07:59:52;7.00;;;3.75;;
38182;SDS011;23991;52.430;10.586;2022-10-26T08:02:17;5.47;;;3.33;;
38182;SDS011;23991;52.430;10.586;2022-10-26T08:04:43;7.53;;;3.80;;
38182;SDS011;23991;52.430;10.586;2022-10-26T08:07:08;12.93;;;3.50;;
38182;SDS011;23991;52.430;10.586;2022-10-26T08:09:34;5.05;;;3.60;;
38182;SDS011;23991;52.430;10.586;2022-10-26T08:11:59;6.70;;;3.47;;
38182;SDS011;23991;52.430;10.586;2022-10-26T08:14:25;6.78;;;3.05;;
38182;SDS011;23991;52.430;10.586;2022-10-26T08:16:51;6.32;;;3.13;;
38182;SDS011;23991;52.430;10.586;2022-10-26T08:19:17;8.82;;;3.67;;
38182;SDS011;23991;52.430;10.586;2022-10-26T08:21:42;7.65;;;3.50;;
38182;SDS011;23991;52.430;10.586;2022-10-26T08:24:08;7.47;;;3.85;;
38182;SDS011;23991;52.430;10.586;2022-10-26T08:26:34;7.80;;;3.80;;
38182;SDS011;23991;52.430;10.586;2022-10-26T08:29:00;10.57;;;3.13;;
38182;SDS011;23991;52.430;10.586;2022-10-26T08:31:25;10.40;;;3.47;;
38182;SDS011;23991;52.430;10.586;2022-10-26T08:33:51;9.95;;;3.20;;
38182;SDS011;23991;52.430;10.586;2022-10-26T08:36:19;6.95;;;3.30;;
38182;SDS011;23991;52.430;10.586;2022-10-26T08:38:48;4.93;;;2.72;;
38182;SDS011;23991;52.430;10.586;2022-10-26T08:41:13;5.88;;;2.97;;
38182;SDS011;23991;52.430;10.586;2022-10-26T08:43:41;33.55;;;4.07;;
38182;SDS011;23991;52.430;10.586;2022-10-26T08:46:12;10.38;;;3.30;;
38182;SDS011;23991;52.430;10.586;2022-10-26T08:48:43;7.93;;;3.35;;
38182;SDS011;23991;52.430;10.586;2022-10-26T08:51:14;6.38;;;3.10;;
38182;SDS011;23991;52.430;10.586;2022-10-26T08:56:22;3.80;;;2.25;;
38182;SDS011;23991;52.430;10.586;2022-10-26T08:58:52;5.88;;;2.10;;
38182;SDS011;23991;52.430;10.586;2022-10-26T09:01:20;9.98;;;2.60;;
38182;SDS011;23991;52.430;10.586;2022-10-26T09:03:46;5.28;;;2.28;;
38182;SDS011;23991;52.430;10.586;2022-10-26T09:14:18;5.60;;;2.40;;
38182;SDS011;23991;52.430;10.586;2022-10-26T09:19:46;5.43;;;2.63;;
38182;SDS011;23991;52.430;10.586;2022-10-26T09:25:21;4.57;;;2.20;;
38182;SDS011;23991;52.430;10.586;2022-10-26T09:27:49;6.13;;;3.03;;
38182;SDS011;23991;52.430;10.586;2022-10-26T09:30:21;9.20;;;6.25;;
38182;SDS011;23991;52.430;10.586;2022-10-26T09:32:58;12.93;;;8.15;;
38182;SDS011;23991;52.430;10.586;2022-10-26T09:35:27;14.00;;;7.35;;
38182;SDS011;23991;52.430;10.586;2022-10-26T09:38:08;14.38;;;6.75;;
38182;SDS011;23991;52.430;10.586;2022-10-26T09:46:20;5.25;;;3.13;;
38182;SDS011;23991;52.430;10.586;2022-10-26T09:48:58;5.07;;;2.80;;
38182;SDS011;23991;52.430;10.586;2022-10-26T09:51:32;10.90;;;3.67;;
38182;SDS011;23991;52.430;10.586;2022-10-26T09:54:00;7.20;;;4.18;;
38182;SDS011;23991;52.430;10.586;2022-10-26T09:56:29;9.35;;;5.15;;
38182;SDS011;23991;52.430;10.586;2022-10-26T09:58:57;8.70;;;5.15;;
38182;SDS011;23991;52.430;10.586;2022-10-26T10:04:08;11.55;;;5.70;;
38182;SDS011;23991;52.430;10.586;2022-10-26T10:06:34;9.05;;;5.40;;
38182;SDS011;23991;52.430;10.586;2022-10-26T10:09:10;7.05;;;3.75;;
38182;SDS011;23991;52.430;10.586;2022-10-26T10:11:40;5.65;;;2.42;;
38182;SDS011;23991;52.430;10.586;2022-10-26T10:14:13;5.78;;;2.50;;
38182;SDS011;23991;52.430;10.586;2022-10-26T10:16:48;7.60;;;2.90;;
38182;SDS011;23991;52.430;10.586;2022-10-26T10:19:31;7.90;;;2.60;;
38182;SDS011;23991;52.430;10.586;2022-10-26T10:22:07;7.57;;;3.67;;
38182;SDS011;23991;52.430;10.586;2022-10-26T10:24:41;11.98;;;3.75;;
38182;SDS011;23991;52.430;10.586;2022-10-26T10:27:16;9.75;;;3.47;;
38182;SDS011;23991;52.430;10.586;2022-10-26T10:29:46;6.30;;;2.38;;
38182;SDS011;23991;52.430;10.586;2022-10-26T10:32:17;4.05;;;2.00;;
38182;SDS011;23991;52.430;10.586;2022-10-26T10:34:51;3.78;;;1.70;;
38182;SDS011;23991;52.430;10.586;2022-10-26T10:39:54;7.68;;;2.42;;
38182;SDS011;23991;52.430;10.586;2022-10-26T10:42:30;3.90;;;1.60;;
38182;SDS011;23991;52.430;10.586;2022-10-26T10:44:58;5.35;;;1.70;;
38182;SDS011;23991;52.430;10.586;2022-10-26T10:47:28;5.07;;;1.80;;
38182;SDS011;23991;52.430;10.586;2022-10-26T10:49:57;3.05;;;1.60;;
38182;SDS011;23991;52.430;10.586;2022-10-26T10:52:31;2.85;;;1.48;;
38182;SDS011;23991;52.430;10.586;2022-10-26T10:55:13;3.45;;;1.70;;
38182;SDS011;23991;52.430;10.586;2022-10-26T11:00:28;4.15;;;1.63;;
38182;SDS011;23991;52.430;10.586;2022-10-26T11:11:30;3.08;;;1.88;;
38182;SDS011;23991;52.430;10.586;2022-10-26T11:16:44;3.83;;;1.40;;
38182;SDS011;23991;52.430;10.586;2022-10-26T11:19:23;3.25;;;1.52;;
38182;SDS011;23991;52.430;10.586;2022-10-26T11:21:55;5.57;;;1.75;;
38182;SDS011;23991;52.430;10.586;2022-10-26T11:24:34;4.90;;;1.80;;
38182;SDS011;23991;52.430;10.586;2022-10-26T11:27:11;5.05;;;2.53;;
38182;SDS011;23991;52.430;10.586;2022-10-26T11:30:00;5.80;;;2.35;;
38182;SDS011;23991;52.430;10.586;2022-10-26T11:37:55;5.47;;;1.77;;
38182;SDS011;23991;52.430;10.586;2022-10-26T11:46:29;3.05;;;1.67;;
38182;SDS011;23991;52.430;10.586;2022-10-26T11:49:10;5.68;;;1.95;;
38182;SDS011;23991;52.430;10.586;2022-10-26T11:51:40;3.40;;;1.40;;
38182;SDS011;23991;52.430;10.586;2022-10-26T11:54:21;5.28;;;1.50;;
38182;SDS011;23991;52.430;10.586;2022-10-26T11:57:16;3.00;;;1.75;;
38182;SDS011;23991;52.430;10.586;2022-10-26T11:59:43;4.32;;;1.90;;
38182;SDS011;23991;52.430;10.586;2022-10-26T12:02:14;4.65;;;1.80;;
38182;SDS011;23991;52.430;10.586;2022-10-26T12:04:49;7.15;;;1.65;;
38182;SDS011;23991;52.430;10.586;2022-10-26T12:07:23;3.35;;;1.92;;
38182;SDS011;23991;52.430;10.586;2022-10-26T12:09:54;7.10;;;2.35;;
38182;SDS011;23991;52.430;10.586;2022-10-26T12:12:33;6.05;;;2.20;;
38182;SDS011;23991;52.430;10.586;2022-10-26T12:17:42;3.60;;;1.70;;
38182;SDS011;23991;52.430;10.586;2022-10-26T12:23:00;5.75;;;1.70;;
38182;SDS011;23991;52.430;10.586;2022-10-26T12:25:28;6.97;;;2.00;;
38182;SDS011;23991;52.430;10.586;2022-10-26T12:27:54;5.60;;;1.90;;
38182;SDS011;23991;52.430;10.586;2022-10-26T12:33:47;2.78;;;1.42;;
38182;SDS011;23991;52.430;10.586;2022-10-26T12:35:53;4.55;;;1.60;;
38182;SDS011;23991;52.430;10.586;2022-10-26T12:43:32;4.93;;;1.73;;
38182;SDS011;23991;52.430;10.586;2022-10-26T12:56:54;4.32;;;1.80;;
38182;SDS011;23991;52.430;10.586;2022-10-26T12:59:40;9.77;;;2.00;;
38182;SDS011;23991;52.430;10.586;2022-10-26T13:04:54;6.13;;;2.20;;
38182;SDS011;23991;52.430;10.586;2022-10-26T13:07:43;6.93;;;2.17;;
38182;SDS011;23991;52.430;10.586;2022-10-26T13:15:28;4.13;;;1.75;;
38182;SDS011;23991;52.430;10.586;2022-10-26T13:17:54;6.20;;;2.03;;
38182;SDS011;23991;52.430;10.586;2022-10-26T13:20:26;5.25;;;1.83;;
38182;SDS011;23991;52.430;10.586;2022-10-26T13:22:55;3.60;;;1.90;;
38182;SDS011;23991;52.430;10.586;2022-10-26T13:25:22;5.65;;;2.42;;
38182;SDS011;23991;52.430;10.586;2022-10-26T13:28:01;4.93;;;1.50;;
38182;SDS011;23991;52.430;10.586;2022-10-26T13:32:57;4.88;;;2.22;;
38182;SDS011;23991;52.430;10.586;2022-10-26T13:35:25;5.80;;;2.13;;
38182;SDS011;23991;52.430;10.586;2022-10-26T13:37:52;4.57;;;2.17;;
38182;SDS011;23991;52.430;10.586;2022-10-26T13:40:20;4.60;;;2.10;;
38182;SDS011;23991;52.430;10.586;2022-10-26T13:42:49;6.10;;;1.77;;
38182;SDS011;23991;52.430;10.586;2022-10-26T13:45:25;4.18;;;2.03;;
38182;SDS011;23991;52.430;10.586;2022-10-26T13:50:31;5.25;;;1.77;;
38182;SDS011;23991;52.430;10.586;2022-10-26T13:53:15;7.13;;;2.10;;
38182;SDS011;23991;52.430;10.586;2022-10-26T13:55:54;13.38;;;2.38;;
38182;SDS011;23991;52.430;10.586;2022-10-26T13:58:32;4.78;;;2.00;;
38182;SDS011;23991;52.430;10.586;2022-10-26T14:01:23;5.50;;;2.20;;
38182;SDS011;23991;52.430;10.586;2022-10-26T14:03:48;5.53;;;2.30;;
38182;SDS011;23991;52.430;10.586;2022-10-26T14:08:58;6.63;;;2.00;;
38182;SDS011;23991;52.430;10.586;2022-10-26T14:11:30;7.73;;;2.10;;
38182;SDS011;23991;52.430;10.586;2022-10-26T14:14:02;6.70;;;1.88;;
38182;SDS011;23991;52.430;10.586;2022-10-26T14:16:29;5.93;;;2.20;;
38182;SDS011;23991;52.430;10.586;2022-10-26T14:18:57;4.17;;;2.37;;
38182;SDS011;23991;52.430;10.586;2022-10-26T14:21:23;7.10;;;2.20;;
38182;SDS011;23991;52.430;10.586;2022-10-26T14:23:53;3.72;;;2.08;;
38182;SDS011;23991;52.430;10.586;2022-10-26T14:26:28;4.97;;;2.17;;
38182;SDS011;23991;52.430;10.586;2022-10-26T14:28:56;8.00;;;2.42;;
38182;SDS011;23991;52.430;10.586;2022-10-26T14:31:32;5.95;;;2.80;;
38182;SDS011;23991;52.430;10.586;2022-10-26T14:34:00;6.25;;;2.97;;
38182;SDS011;23991;52.430;10.586;2022-10-26T14:37:10;4.83;;;2.23;;
38182;SDS011;23991;52.430;10.586;2022-10-26T14:39:36;7.45;;;2.50;;
38182;SDS011;23991;52.430;10.586;2022-10-26T14:42:13;4.60;;;2.35;;
38182;SDS011;23991;52.430;10.586;2022-10-26T14:44:52;8.48;;;2.50;;
38182;SDS011;23991;52.430;10.586;2022-10-26T14:47:22;6.45;;;2.33;;
38182;SDS011;23991;52.430;10.586;2022-10-26T14:49:52;12.50;;;2.35;;
38182;SDS011;23991;52.430;10.586;2022-10-26T14:52:21;3.80;;;1.85;;
38182;SDS011;23991;52.430;10.586;2022-10-26T14:57:33;3.85;;;1.63;;
38182;SDS011;23991;52.430;10.586;2022-10-26T15:02:35;7.65;;;2.17;;
38182;SDS011;23991;52.430;10.586;2022-10-26T15:05:46;4.72;;;1.60;;
38182;SDS011;23991;52.430;10.586;2022-10-26T15:07:47;4.88;;;2.00;;
38182;SDS011;23991;52.430;10.586;2022-10-26T15:16:14;4.00;;;1.77;;
38182;SDS011;23991;52.430;10.586;2022-10-26T15:18:42;4.97;;;1.70;;
38182;SDS011;23991;52.430;10.586;2022-10-26T15:26:45;3.70;;;1.92;;
38182;SDS011;23991;52.430;10.586;2022-10-26T15:32:17;5.15;;;2.28;;
38182;SDS011;23991;52.430;10.586;2022-10-26T15:37:43;2.63;;;1.70;;
38182;SDS011;23991;52.430;10.586;2022-10-26T15:42:39;8.52;;;1.80;;
38182;SDS011;23991;52.430;10.586;2022-10-26T15:45:16;7.00;;;2.95;;
38182;SDS011;23991;52.430;10.586;2022-10-26T15:47:53;6.53;;;2.35;;
38182;SDS011;23991;52.430;10.586;2022-10-26T15:50:22;12.65;;;2.38;;
38182;SDS011;23991;52.430;10.586;2022-10-26T15:52:49;9.52;;;3.20;;
38182;SDS011;23991;52.430;10.586;2022-10-26T15:55:18;4.55;;;2.70;;
38182;SDS011;23991;52.430;10.586;2022-10-26T15:57:44;4.78;;;2.55;;
38182;SDS011;23991;52.430;10.586;2022-10-26T16:00:13;5.07;;;2.40;;
38182;SDS011;23991;52.430;10.586;2022-10-26T16:02:41;5.18;;;1.90;;
38182;SDS011;23991;52.430;10.586;2022-10-26T16:05:08;7.28;;;1.98;;
38182;SDS011;23991;52.430;10.586;2022-10-26T16:07:36;4.13;;;2.22;;
38182;SDS011;23991;52.430;10.586;2022-10-26T16:10:02;4.97;;;2.10;;
38182;SDS011;23991;52.430;10.586;2022-10-26T16:12:28;3.72;;;2.00;;
38182;SDS011;23991;52.430;10.586;2022-10-26T16:14:53;4.38;;;2.00;;
38182;SDS011;23991;52.430;10.586;2022-10-26T16:17:19;6.03;;;1.90;;
38182;SDS011;23991;52.430;10.586;2022-10-26T16:19:45;6.38;;;2.08;;
38182;SDS011;23991;52.430;10.586;2022-10-26T16:22:11;7.70;;;2.05;;
38182;SDS011;23991;52.430;10.586;2022-10-26T16:24:37;2.70;;;1.60;;
38182;SDS011;23991;52.430;10.586;2022-10-26T16:27:02;5.25;;;2.13;;
38182;SDS011;23991;52.430;10.586;2022-10-26T16:29:28;7.68;;;2.25;;
38182;SDS011;23991;52.430;10.586;2022-10-26T16:31:55;4.82;;;1.90;;
38182;SDS011;23991;52.430;10.586;2022-10-26T16:34:20;5.45;;;2.03;;
38182;SDS011;23991;52.430;10.586;2022-10-26T16:36:46;3.78;;;2.35;;
38182;SDS011;23991;52.430;10.586;2022-10-26T16:39:11;4.25;;;2.15;;
38182;SDS011;23991;52.430;10.586;2022-10-26T16:41:37;6.07;;;2.35;;
38182;SDS011;23991;52.430;10.586;2022-10-26T16:44:02;5.38;;;2.20;;
38182;SDS011;23991;52.430;10.586;2022-10-26T16:46:28;3.10;;;2.20;;
38182;SDS011;23991;52.430;10.586;2022-10-26T16:48:54;8.05;;;2.42;;
38182;SDS011;23991;52.430;10.586;2022-10-26T16:51:21;5.72;;;2.13;;
38182;SDS011;23991;52.430;10.586;2022-10-26T16:53:48;5.95;;;2.63;;
38182;SDS011;23991;52.430;10.586;2022-10-26T16:56:17;6.15;;;2.88;;
38182;SDS011;23991;52.430;10.586;2022-10-26T16:58:44;4.25;;;2.10;;
38182;SDS011;23991;52.430;10.586;2022-10-26T17:01:10;5.15;;;2.47;;
38182;SDS011;23991;52.430;10.586;2022-10-26T17:03:41;4.28;;;2.88;;
38182;SDS011;23991;52.430;10.586;2022-10-26T17:06:07;6.63;;;3.80;;
38182;SDS011;23991;52.430;10.586;2022-10-26T17:09:18;8.57;;;3.10;;
38182;SDS011;23991;52.430;10.586;2022-10-26T17:11:43;9.38;;;3.38;;
38182;SDS011;23991;52.430;10.586;2022-10-26T17:14:09;9.68;;;3.42;;
38182;SDS011;23991;52.430;10.586;2022-10-26T17:16:35;6.32;;;3.40;;
38182;SDS011;23991;52.430;10.586;2022-10-26T17:19:00;9.52;;;4.20;;
38182;SDS011;23991;52.430;10.586;2022-10-26T17:21:30;13.68;;;5.63;;
38182;SDS011;23991;52.430;10.586;2022-10-26T17:23:58;12.13;;;6.28;;
38182;SDS011;23991;52.430;10.586;2022-10-26T17:26:24;12.85;;;7.15;;
38182;SDS011;23991;52.430;10.586;2022-10-26T17:28:50;18.10;;;7.57;;
38182;SDS011;23991;52.430;10.586;2022-10-26T17:31:16;10.38;;;6.25;;
38182;SDS011;23991;52.430;10.586;2022-10-26T17:33:43;8.35;;;4.65;;
38182;SDS011;23991;52.430;10.586;2022-10-26T17:36:11;10.75;;;4.80;;
38182;SDS011;23991;52.430;10.586;2022-10-26T17:38:38;9.35;;;5.30;;